createdAt,value
2018-07-07T00:00:07.542Z,1.90
2018-07-07T00:02:00.274Z,2.00
2018-07-07T00:03:00.151Z,2.00
2018-07-07T00:04:52.991Z,2.10
2018-07-07T00:05:52.896Z,1.70
2018-07-07T00:07:45.678Z,1.80
2018-07-07T00:08:45.576Z,1.90
2018-07-07T00:10:38.411Z,1.70
2018-07-07T00:11:38.209Z,1.80
2018-07-07T00:13:30.983Z,2.10
2018-07-07T00:14:30.867Z,2.00
2018-07-07T00:16:23.690Z,2.40
2018-07-07T00:17:23.610Z,2.10
2018-07-07T00:19:16.375Z,2.40
2018-07-07T00:20:16.242Z,1.80
2018-07-07T00:22:10.008Z,2.20
2018-07-07T00:23:09.911Z,1.90
2018-07-07T00:25:02.700Z,1.90
2018-07-07T00:26:02.571Z,1.90
2018-07-07T00:27:55.334Z,2.40
2018-07-07T00:28:55.220Z,2.10
2018-07-07T00:30:47.976Z,2.30
2018-07-07T00:31:47.847Z,1.70
2018-07-07T00:33:40.732Z,1.90
2018-07-07T00:34:40.713Z,2.50
2018-07-07T00:36:33.958Z,2.50
2018-07-07T00:37:33.897Z,2.20
2018-07-07T00:39:26.726Z,2.30
2018-07-07T00:40:26.656Z,2.00
2018-07-07T00:42:19.882Z,2.40
2018-07-07T00:43:20.035Z,1.70
2018-07-07T00:45:12.681Z,2.20
2018-07-07T00:46:12.553Z,1.90
2018-07-07T00:48:05.403Z,2.20
2018-07-07T00:49:05.297Z,2.00
2018-07-07T00:50:58.058Z,1.80
2018-07-07T00:51:57.914Z,2.20
2018-07-07T00:53:50.660Z,1.90
2018-07-07T00:54:50.577Z,2.10
2018-07-07T00:56:43.321Z,2.00
2018-07-07T00:57:43.226Z,1.80
2018-07-07T00:59:36.066Z,1.80
2018-07-07T01:00:35.965Z,1.80
2018-07-07T01:02:28.820Z,2.10
2018-07-07T01:03:28.735Z,1.90
2018-07-07T01:05:22.088Z,2.10
2018-07-07T01:06:21.386Z,2.10
2018-07-07T01:08:14.218Z,1.80
2018-07-07T01:09:14.102Z,2.30
2018-07-07T01:11:06.985Z,2.20
2018-07-07T01:12:06.774Z,2.10
2018-07-07T01:13:59.491Z,2.00
2018-07-07T01:14:59.414Z,2.20
2018-07-07T01:16:52.166Z,1.90
2018-07-07T01:17:52.049Z,2.00
2018-07-07T01:19:45.040Z,2.00
2018-07-07T01:20:44.840Z,2.10
2018-07-07T01:22:37.474Z,1.90
2018-07-07T01:23:37.350Z,2.00
2018-07-07T01:25:30.216Z,2.20
2018-07-07T01:26:30.021Z,2.00
2018-07-07T01:28:22.855Z,2.00
2018-07-07T01:29:22.771Z,2.10
2018-07-07T01:31:15.615Z,2.00
2018-07-07T01:32:15.482Z,2.20
2018-07-07T01:34:08.284Z,2.30
2018-07-07T01:35:08.149Z,2.00
2018-07-07T01:37:00.944Z,2.00
2018-07-07T01:38:00.813Z,2.10
2018-07-07T01:39:54.194Z,1.90
2018-07-07T01:40:53.431Z,1.70
2018-07-07T01:42:46.272Z,2.00
2018-07-07T01:43:46.175Z,1.90
2018-07-07T01:45:39.441Z,2.10
2018-07-07T01:46:39.341Z,1.90
2018-07-07T01:48:32.175Z,1.90
2018-07-07T01:49:31.993Z,1.90
2018-07-07T01:51:25.356Z,1.80
2018-07-07T01:52:24.642Z,2.20
2018-07-07T01:54:17.902Z,2.00
2018-07-07T01:55:17.800Z,2.00
2018-07-07T01:57:11.080Z,1.90
2018-07-07T01:58:10.961Z,1.80
2018-07-07T02:00:03.716Z,2.10
2018-07-07T02:01:03.607Z,2.00
2018-07-07T02:02:56.376Z,1.80
2018-07-07T02:03:56.259Z,2.00
2018-07-07T02:05:49.608Z,1.90
2018-07-07T02:06:48.891Z,1.90
2018-07-07T02:08:41.664Z,2.40
2018-07-07T02:09:41.549Z,2.50
2018-07-07T02:11:34.406Z,2.30
2018-07-07T02:12:34.395Z,1.90
2018-07-07T02:14:27.189Z,2.10
2018-07-07T02:15:27.045Z,2.40
2018-07-07T02:17:20.318Z,2.10
2018-07-07T02:18:20.218Z,2.30
2018-07-07T02:20:13.576Z,2.10
2018-07-07T02:21:12.897Z,2.30
2018-07-07T02:23:06.210Z,2.00
2018-07-07T02:24:05.595Z,2.30
2018-07-07T02:25:58.397Z,2.00
2018-07-07T02:26:58.239Z,2.10
2018-07-07T02:28:50.988Z,2.00
2018-07-07T02:29:50.932Z,2.00
2018-07-07T02:31:43.758Z,2.30
2018-07-07T02:32:43.643Z,2.20
2018-07-07T02:34:36.480Z,2.20
2018-07-07T02:35:36.384Z,2.10
2018-07-07T02:37:29.156Z,1.90
2018-07-07T02:38:29.035Z,2.40
2018-07-07T02:40:21.796Z,2.20
2018-07-07T02:41:21.705Z,2.20
2018-07-07T02:43:14.443Z,2.50
2018-07-07T02:44:14.329Z,2.10
2018-07-07T02:46:07.202Z,2.00
2018-07-07T02:47:07.108Z,2.10
2018-07-07T02:48:59.839Z,2.20
2018-07-07T02:49:59.722Z,2.20
2018-07-07T02:51:52.466Z,2.20
2018-07-07T02:52:52.370Z,2.30
2018-07-07T02:54:45.289Z,2.40
2018-07-07T02:55:45.126Z,2.00
2018-07-07T02:57:37.891Z,2.40
2018-07-07T02:58:37.767Z,2.40
2018-07-07T03:00:30.562Z,2.20
2018-07-07T03:01:30.433Z,2.50
2018-07-07T03:03:23.777Z,2.20
2018-07-07T03:04:23.574Z,2.40
2018-07-07T03:06:16.364Z,2.00
2018-07-07T03:07:16.224Z,2.20
2018-07-07T03:09:10.162Z,2.40
2018-07-07T03:10:09.901Z,2.00
2018-07-07T03:12:02.767Z,2.30
2018-07-07T03:13:02.605Z,2.40
2018-07-07T03:14:55.403Z,2.60
2018-07-07T03:15:55.299Z,2.60
2018-07-07T03:17:48.153Z,2.10
2018-07-07T03:18:48.041Z,2.40
2018-07-07T03:20:40.891Z,2.30
2018-07-07T03:21:40.700Z,2.20
2018-07-07T03:23:33.479Z,2.20
2018-07-07T03:24:33.358Z,2.60
2018-07-07T03:26:26.317Z,2.10
2018-07-07T03:27:26.090Z,2.10
2018-07-07T03:29:18.867Z,2.10
2018-07-07T03:30:18.742Z,2.40
2018-07-07T03:32:11.580Z,2.10
2018-07-07T03:33:11.502Z,2.20
2018-07-07T03:35:04.279Z,2.20
2018-07-07T03:36:04.140Z,2.30
2018-07-07T03:37:56.892Z,2.50
2018-07-07T03:38:56.771Z,2.60
2018-07-07T03:40:49.627Z,2.50
2018-07-07T03:41:49.540Z,2.60
2018-07-07T03:43:42.277Z,2.50
2018-07-07T03:44:42.175Z,2.30
2018-07-07T03:46:35.545Z,2.60
2018-07-07T03:47:34.823Z,2.10
2018-07-07T03:49:27.695Z,2.40
2018-07-07T03:50:27.575Z,2.50
2018-07-07T03:52:20.449Z,2.80
2018-07-07T03:53:20.219Z,2.50
2018-07-07T03:55:13.109Z,2.30
2018-07-07T03:56:12.978Z,2.50
2018-07-07T03:58:05.814Z,3.00
2018-07-07T03:59:05.719Z,2.30
2018-07-07T04:00:58.576Z,2.50
2018-07-07T04:01:58.483Z,2.80
2018-07-07T04:03:51.220Z,2.80
2018-07-07T04:04:51.109Z,2.70
2018-07-07T04:06:43.868Z,2.60
2018-07-07T04:07:43.768Z,2.60
2018-07-07T04:09:36.623Z,2.50
2018-07-07T04:10:36.617Z,2.40
2018-07-07T04:12:30.416Z,2.50
2018-07-07T04:13:30.201Z,2.40
2018-07-07T04:15:23.028Z,2.30
2018-07-07T04:16:22.970Z,2.60
2018-07-07T04:18:15.971Z,2.80
2018-07-07T04:19:16.025Z,2.60
2018-07-07T04:21:08.576Z,2.70
2018-07-07T04:22:08.455Z,2.50
2018-07-07T04:24:01.314Z,2.90
2018-07-07T04:25:01.183Z,2.60
2018-07-07T04:26:54.029Z,3.20
2018-07-07T04:27:53.924Z,3.00
2018-07-07T04:29:46.713Z,2.80
2018-07-07T04:30:46.577Z,2.70
2018-07-07T04:32:39.346Z,3.00
2018-07-07T04:33:39.228Z,3.00
2018-07-07T04:35:32.076Z,3.30
2018-07-07T04:36:32.001Z,3.20
2018-07-07T04:38:24.762Z,2.80
2018-07-07T04:39:24.618Z,3.20
2018-07-07T04:41:17.365Z,2.90
2018-07-07T04:42:17.321Z,2.60
2018-07-07T04:44:10.146Z,3.20
2018-07-07T04:45:10.018Z,3.50
2018-07-07T04:47:02.766Z,3.10
2018-07-07T04:48:02.667Z,2.80
2018-07-07T04:49:55.441Z,3.00
2018-07-07T04:50:55.307Z,3.30
2018-07-07T04:52:48.165Z,3.20
2018-07-07T04:53:48.057Z,2.80
2018-07-07T04:55:40.807Z,3.30
2018-07-07T04:56:40.703Z,3.60
2018-07-07T04:58:33.593Z,3.50
2018-07-07T04:59:33.350Z,3.10
2018-07-07T05:01:26.139Z,3.50
2018-07-07T05:02:26.010Z,3.60
2018-07-07T05:04:18.877Z,3.70
2018-07-07T05:05:18.753Z,3.40
2018-07-07T05:07:11.497Z,2.90
2018-07-07T05:08:11.422Z,3.30
2018-07-07T05:10:04.260Z,3.50
2018-07-07T05:11:04.292Z,3.20
2018-07-07T05:12:57.026Z,3.50
2018-07-07T05:13:56.945Z,3.10
2018-07-07T05:15:49.663Z,3.50
2018-07-07T05:16:49.543Z,3.30
2018-07-07T05:18:42.408Z,3.60
2018-07-07T05:19:42.312Z,3.50
2018-07-07T05:21:35.588Z,3.50
2018-07-07T05:22:35.452Z,3.70
2018-07-07T05:24:28.341Z,3.10
2018-07-07T05:25:28.245Z,3.90
2018-07-07T05:27:21.067Z,3.50
2018-07-07T05:28:21.086Z,3.70
2018-07-07T05:30:13.830Z,3.70
2018-07-07T05:31:13.742Z,3.50
2018-07-07T05:33:06.586Z,3.40
2018-07-07T05:34:06.460Z,3.40
2018-07-07T05:35:59.430Z,3.10
2018-07-07T05:36:59.101Z,3.60
2018-07-07T05:38:51.972Z,3.20
2018-07-07T05:39:51.851Z,3.30
2018-07-07T05:41:44.714Z,2.90
2018-07-07T05:42:44.670Z,3.50
2018-07-07T05:44:37.383Z,3.30
2018-07-07T05:45:37.249Z,3.20
2018-07-07T05:47:29.991Z,3.10
2018-07-07T05:48:29.896Z,3.00
2018-07-07T05:50:22.755Z,3.30
2018-07-07T05:51:22.652Z,3.00
2018-07-07T05:53:15.410Z,3.30
2018-07-07T05:54:15.305Z,3.20
2018-07-07T05:56:08.137Z,3.50
2018-07-07T05:57:08.030Z,3.60
2018-07-07T05:59:00.781Z,3.10
2018-07-07T06:00:00.690Z,3.30
2018-07-07T06:01:53.439Z,3.20
2018-07-07T06:02:53.346Z,3.30
2018-07-07T06:04:46.172Z,3.50
2018-07-07T06:05:46.081Z,3.00
2018-07-07T06:07:38.867Z,3.30
2018-07-07T06:08:38.746Z,3.80
2018-07-07T06:10:31.589Z,3.30
2018-07-07T06:11:31.482Z,3.60
2018-07-07T06:13:24.366Z,3.50
2018-07-07T06:14:24.327Z,3.20
2018-07-07T06:16:17.048Z,3.30
2018-07-07T06:17:16.881Z,3.30
2018-07-07T06:19:09.754Z,3.50
2018-07-07T06:20:09.712Z,3.10
2018-07-07T06:22:02.494Z,3.30
2018-07-07T06:23:02.370Z,3.40
2018-07-07T06:24:55.225Z,3.80
2018-07-07T06:25:55.144Z,3.20
2018-07-07T06:27:47.995Z,3.20
2018-07-07T06:28:47.870Z,3.30
2018-07-07T06:30:40.734Z,3.30
2018-07-07T06:31:40.621Z,3.30
2018-07-07T06:33:33.389Z,3.20
2018-07-07T06:34:33.284Z,3.30
2018-07-07T06:36:26.118Z,3.60
2018-07-07T06:37:26.158Z,3.00
2018-07-07T06:39:18.776Z,3.10
2018-07-07T06:40:18.669Z,3.30
2018-07-07T06:42:11.546Z,3.20
2018-07-07T06:43:11.320Z,3.10
2018-07-07T06:45:04.120Z,2.90
2018-07-07T06:46:04.370Z,2.70
2018-07-07T06:47:57.519Z,3.20
2018-07-07T06:48:56.641Z,2.80
2018-07-07T06:50:49.869Z,3.00
2018-07-07T06:51:49.769Z,3.30
2018-07-07T06:53:42.572Z,3.00
2018-07-07T06:54:42.421Z,2.60
2018-07-07T06:56:35.153Z,3.10
2018-07-07T06:57:35.078Z,2.80
2018-07-07T06:59:27.925Z,2.50
2018-07-07T07:00:27.847Z,2.80
2018-07-07T07:02:20.676Z,3.00
2018-07-07T07:03:20.489Z,2.80
2018-07-07T07:05:13.437Z,2.90
2018-07-07T07:06:13.119Z,2.50
2018-07-07T07:08:05.977Z,2.90
2018-07-07T07:09:05.878Z,2.60
2018-07-07T07:10:59.795Z,2.80
2018-07-07T07:11:59.084Z,2.80
2018-07-07T07:13:51.881Z,2.80
2018-07-07T07:14:51.787Z,2.60
2018-07-07T07:16:44.630Z,2.60
2018-07-07T07:17:44.535Z,2.80
2018-07-07T07:19:37.283Z,3.10
2018-07-07T07:20:37.187Z,3.00
2018-07-07T07:22:31.110Z,2.90
2018-07-07T07:23:32.129Z,2.50
2018-07-07T07:25:23.800Z,2.40
2018-07-07T07:26:23.721Z,2.80
2018-07-07T07:28:16.549Z,2.70
2018-07-07T07:29:16.433Z,3.10
2018-07-07T07:31:09.308Z,2.90
2018-07-07T07:32:09.188Z,2.50
2018-07-07T07:34:02.023Z,2.90
2018-07-07T07:35:01.935Z,2.60
2018-07-07T07:36:54.709Z,2.70
2018-07-07T07:37:54.615Z,2.60
2018-07-07T07:39:47.416Z,2.70
2018-07-07T07:40:47.331Z,3.00
2018-07-07T07:42:40.086Z,2.70
2018-07-07T07:43:39.977Z,2.50
2018-07-07T07:45:32.754Z,2.70
2018-07-07T07:46:32.639Z,2.50
2018-07-07T07:48:25.474Z,2.80
2018-07-07T07:49:25.283Z,2.60
2018-07-07T07:51:18.052Z,2.50
2018-07-07T07:52:17.942Z,2.30
2018-07-07T07:54:10.761Z,2.70
2018-07-07T07:55:10.671Z,2.60
2018-07-07T07:57:03.538Z,2.80
2018-07-07T07:58:03.414Z,2.50
2018-07-07T07:59:56.808Z,3.10
2018-07-07T08:00:56.070Z,2.50
2018-07-07T08:02:48.920Z,2.70
2018-07-07T08:03:48.855Z,2.30
2018-07-07T08:05:41.802Z,2.60
2018-07-07T08:06:41.708Z,2.50
2018-07-07T08:08:34.521Z,2.50
2018-07-07T08:09:34.421Z,2.90
2018-07-07T08:11:27.803Z,3.80
2018-07-07T08:12:27.199Z,2.70
2018-07-07T08:14:20.020Z,2.80
2018-07-07T08:15:19.929Z,2.80
2018-07-07T08:17:12.826Z,2.60
2018-07-07T08:18:12.663Z,2.70
2018-07-07T08:20:05.520Z,2.30
2018-07-07T08:21:05.330Z,2.70
2018-07-07T08:22:58.305Z,2.50
2018-07-07T08:23:58.064Z,2.60
2018-07-07T08:25:50.962Z,2.80
2018-07-07T08:26:50.831Z,2.80
2018-07-07T08:28:43.650Z,2.40
2018-07-07T08:29:43.586Z,2.50
2018-07-07T08:31:36.338Z,2.70
2018-07-07T08:32:36.387Z,2.60
2018-07-07T08:34:29.139Z,2.60
2018-07-07T08:35:28.992Z,2.50
2018-07-07T08:37:22.278Z,2.70
2018-07-07T08:38:22.137Z,2.50
2018-07-07T08:40:15.510Z,2.50
2018-07-07T08:41:14.915Z,2.40
2018-07-07T08:43:07.625Z,2.60
2018-07-07T08:44:07.539Z,2.60
2018-07-07T08:46:00.405Z,2.50
2018-07-07T08:47:00.263Z,2.50
2018-07-07T08:48:53.042Z,2.50
2018-07-07T08:49:52.917Z,2.60
2018-07-07T08:51:45.942Z,2.30
2018-07-07T08:52:45.749Z,2.90
2018-07-07T08:54:38.666Z,2.60
2018-07-07T08:55:38.516Z,2.90
2018-07-07T08:57:31.374Z,2.90
2018-07-07T08:58:31.262Z,2.80
2018-07-07T09:00:24.101Z,2.70
2018-07-07T09:01:24.010Z,2.50
2018-07-07T09:03:16.869Z,2.50
2018-07-07T09:04:16.663Z,2.20
2018-07-07T09:06:09.505Z,2.50
2018-07-07T09:07:09.426Z,2.50
2018-07-07T09:09:02.273Z,2.50
2018-07-07T09:10:02.156Z,2.50
2018-07-07T09:11:55.514Z,2.20
2018-07-07T09:12:54.915Z,2.60
2018-07-07T09:14:47.810Z,2.50
2018-07-07T09:15:47.735Z,2.40
2018-07-07T09:17:40.516Z,2.40
2018-07-07T09:18:40.478Z,2.50
2018-07-07T09:20:33.359Z,2.40
2018-07-07T09:21:33.186Z,2.20
2018-07-07T09:23:29.310Z,2.30
2018-07-07T09:24:26.671Z,2.50
2018-07-07T09:26:19.693Z,2.30
2018-07-07T09:27:19.389Z,2.60
2018-07-07T09:29:12.221Z,2.40
2018-07-07T09:30:12.134Z,2.30
2018-07-07T09:32:04.984Z,2.30
2018-07-07T09:33:04.871Z,2.30
2018-07-07T09:34:57.997Z,2.60
2018-07-07T09:35:57.713Z,2.90
2018-07-07T09:37:51.000Z,2.60
2018-07-07T09:38:50.431Z,2.30
2018-07-07T09:40:43.258Z,2.30
2018-07-07T09:41:43.116Z,2.50
2018-07-07T09:43:35.991Z,2.10
2018-07-07T09:44:35.877Z,2.80
2018-07-07T09:46:28.726Z,2.30
2018-07-07T09:47:28.668Z,2.10
2018-07-07T09:49:21.477Z,2.40
2018-07-07T09:50:21.368Z,2.60
2018-07-07T09:52:14.248Z,2.60
2018-07-07T09:53:14.114Z,2.40
2018-07-07T09:55:06.979Z,2.50
2018-07-07T09:56:06.884Z,2.40
2018-07-07T09:57:59.758Z,2.90
2018-07-07T09:58:59.679Z,2.40
2018-07-07T10:00:53.005Z,2.40
2018-07-07T10:01:52.468Z,2.40
2018-07-07T10:03:45.229Z,2.10
2018-07-07T10:04:45.128Z,2.40
2018-07-07T10:06:38.000Z,2.00
2018-07-07T10:07:37.956Z,2.40
2018-07-07T10:09:30.737Z,2.20
2018-07-07T10:10:30.611Z,2.50
2018-07-07T10:12:23.455Z,2.40
2018-07-07T10:13:23.390Z,2.50
2018-07-07T10:15:16.760Z,2.20
2018-07-07T10:16:16.133Z,2.20
2018-07-07T10:18:09.005Z,2.40
2018-07-07T10:19:08.885Z,2.30
2018-07-07T10:21:01.705Z,2.50
2018-07-07T10:22:01.614Z,2.30
2018-07-07T10:23:54.624Z,2.20
2018-07-07T10:24:54.382Z,2.40
2018-07-07T10:26:47.718Z,2.60
2018-07-07T10:27:47.134Z,2.40
2018-07-07T10:29:40.471Z,2.30
2018-07-07T10:30:40.304Z,2.30
2018-07-07T10:32:33.126Z,2.40
2018-07-07T10:33:33.090Z,2.20
2018-07-07T10:35:25.941Z,2.40
2018-07-07T10:36:25.780Z,2.30
2018-07-07T10:38:18.792Z,2.70
2018-07-07T10:39:18.534Z,2.40
2018-07-07T10:41:11.387Z,2.70
2018-07-07T10:42:11.280Z,2.70
2018-07-07T10:44:04.123Z,2.30
2018-07-07T10:45:04.053Z,2.30
2018-07-07T10:46:56.872Z,2.30
2018-07-07T10:47:56.766Z,2.40
2018-07-07T10:49:50.127Z,2.30
2018-07-07T10:50:50.033Z,2.20
2018-07-07T10:52:42.913Z,2.30
2018-07-07T10:53:42.793Z,2.50
2018-07-07T10:55:35.710Z,2.30
2018-07-07T10:56:35.571Z,2.10
2018-07-07T10:58:28.389Z,2.10
2018-07-07T10:59:28.297Z,2.50
2018-07-07T11:01:21.184Z,2.10
2018-07-07T11:02:21.027Z,2.10
2018-07-07T11:04:13.904Z,2.00
2018-07-07T11:05:13.793Z,2.30
2018-07-07T11:07:06.652Z,2.30
2018-07-07T11:08:06.559Z,2.10
2018-07-07T11:09:59.894Z,2.10
2018-07-07T11:10:59.278Z,2.50
2018-07-07T11:12:52.134Z,2.20
2018-07-07T11:13:52.057Z,1.90
2018-07-07T11:15:44.899Z,2.00
2018-07-07T11:16:44.807Z,2.10
2018-07-07T11:18:37.657Z,2.20
2018-07-07T11:19:37.622Z,2.50
2018-07-07T11:21:30.450Z,2.30
2018-07-07T11:22:30.341Z,2.20
2018-07-07T11:24:23.143Z,2.10
2018-07-07T11:25:23.083Z,2.40
2018-07-07T11:27:15.898Z,2.10
2018-07-07T11:28:15.777Z,2.40
2018-07-07T11:30:08.659Z,2.20
2018-07-07T11:31:08.536Z,2.10
2018-07-07T11:33:02.013Z,1.80
2018-07-07T11:34:01.332Z,2.50
2018-07-07T11:35:55.121Z,2.00
2018-07-07T11:36:54.916Z,2.30
2018-07-07T11:38:47.711Z,2.20
2018-07-07T11:39:47.617Z,2.00
2018-07-07T11:41:40.981Z,2.40
2018-07-07T11:42:40.366Z,2.20
2018-07-07T11:44:33.231Z,2.10
2018-07-07T11:45:33.161Z,1.90
2018-07-07T11:47:25.983Z,2.20
2018-07-07T11:48:25.854Z,2.00
2018-07-07T11:50:18.797Z,2.20
2018-07-07T11:51:18.601Z,2.00
2018-07-07T11:53:11.479Z,2.20
2018-07-07T11:54:11.348Z,1.90
2018-07-07T11:56:04.197Z,1.90
2018-07-07T11:57:04.147Z,2.20
2018-07-07T11:58:56.981Z,2.20
2018-07-07T11:59:56.854Z,2.00
2018-07-07T12:01:49.729Z,2.20
2018-07-07T12:02:49.628Z,2.10
2018-07-07T12:04:42.583Z,1.90
2018-07-07T12:05:42.351Z,2.00
2018-07-07T12:07:35.606Z,2.20
2018-07-07T12:08:35.510Z,1.80
2018-07-07T12:10:28.364Z,2.10
2018-07-07T12:11:28.365Z,2.00
2018-07-07T12:13:21.133Z,2.00
2018-07-07T12:14:21.033Z,2.50
2018-07-07T12:16:13.879Z,2.00
2018-07-07T12:17:13.825Z,1.90
2018-07-07T12:19:07.535Z,2.00
2018-07-07T12:20:07.455Z,2.30
2018-07-07T12:22:00.281Z,1.90
2018-07-07T12:23:00.206Z,2.10
2018-07-07T12:24:53.079Z,1.70
2018-07-07T12:25:52.931Z,1.90
2018-07-07T12:27:45.770Z,1.70
2018-07-07T12:28:45.813Z,2.10
2018-07-07T12:30:38.564Z,2.60
2018-07-07T12:31:38.419Z,2.10
2018-07-07T12:33:31.310Z,1.70
2018-07-07T12:34:31.197Z,2.10
2018-07-07T12:36:24.075Z,1.90
2018-07-07T12:37:23.926Z,2.00
2018-07-07T12:39:16.846Z,1.80
2018-07-07T12:40:16.704Z,1.90
2018-07-07T12:42:11.071Z,2.00
2018-07-07T12:43:10.853Z,1.90
2018-07-07T12:45:03.831Z,1.70
2018-07-07T12:46:03.712Z,2.10
2018-07-07T12:47:56.563Z,1.90
2018-07-07T12:48:56.512Z,1.80
2018-07-07T12:50:49.313Z,2.10
2018-07-07T12:51:49.205Z,2.30
2018-07-07T12:53:42.065Z,2.00
2018-07-07T12:54:41.958Z,2.40
2018-07-07T12:56:34.806Z,2.10
2018-07-07T12:57:34.715Z,1.90
2018-07-07T12:59:27.563Z,1.90
2018-07-07T13:00:27.459Z,2.10
2018-07-07T13:02:20.424Z,1.80
2018-07-07T13:03:20.216Z,1.90
2018-07-07T13:05:13.163Z,1.80
2018-07-07T13:06:13.065Z,1.70
2018-07-07T13:08:05.916Z,1.80
2018-07-07T13:09:05.827Z,1.90
2018-07-07T13:10:58.685Z,1.90
2018-07-07T13:11:58.556Z,2.10
2018-07-07T13:13:51.411Z,1.80
2018-07-07T13:14:51.312Z,1.90
2018-07-07T13:16:44.151Z,1.90
2018-07-07T13:17:44.049Z,2.00
2018-07-07T13:19:36.937Z,1.80
2018-07-07T13:20:36.907Z,2.00
2018-07-07T13:22:29.661Z,1.80
2018-07-07T13:23:29.651Z,2.00
2018-07-07T13:25:22.940Z,2.00
2018-07-07T13:26:22.834Z,1.90
2018-07-07T13:28:15.684Z,2.10
2018-07-07T13:29:15.599Z,2.00
2018-07-07T13:31:08.447Z,2.00
2018-07-07T13:32:08.311Z,2.00
2018-07-07T13:34:01.175Z,1.80
2018-07-07T13:35:01.070Z,2.00
2018-07-07T13:36:53.924Z,1.90
2018-07-07T13:37:53.852Z,1.90
2018-07-07T13:39:46.779Z,2.00
2018-07-07T13:40:46.708Z,1.80
2018-07-07T13:42:39.608Z,1.80
2018-07-07T13:43:39.526Z,1.90
2018-07-07T13:45:32.389Z,1.90
2018-07-07T13:46:32.280Z,2.10
2018-07-07T13:48:25.220Z,2.10
2018-07-07T13:49:25.030Z,1.90
2018-07-07T13:51:17.999Z,1.90
2018-07-07T13:52:17.774Z,2.00
2018-07-07T13:54:10.638Z,1.70
2018-07-07T13:55:10.541Z,1.70
2018-07-07T13:57:03.370Z,1.60
2018-07-07T13:58:03.296Z,1.60
2018-07-07T13:59:56.122Z,1.50
2018-07-07T14:00:56.047Z,1.80
2018-07-07T14:02:48.870Z,1.70
2018-07-07T14:03:48.786Z,1.70
2018-07-07T14:05:41.671Z,1.90
2018-07-07T14:06:41.573Z,1.80
2018-07-07T14:08:34.394Z,1.90
2018-07-07T14:09:34.371Z,1.90
2018-07-07T14:11:27.169Z,2.00
2018-07-07T14:12:27.041Z,2.00
2018-07-07T14:14:21.320Z,1.70
2018-07-07T14:15:21.222Z,1.80
2018-07-07T14:17:14.168Z,1.80
2018-07-07T14:18:13.963Z,2.10
2018-07-07T14:20:07.322Z,2.10
2018-07-07T14:21:06.728Z,2.00
2018-07-07T14:22:59.562Z,2.00
2018-07-07T14:23:59.571Z,1.60
2018-07-07T14:25:52.424Z,2.10
2018-07-07T14:26:52.213Z,1.80
2018-07-07T14:28:45.046Z,2.10
2018-07-07T14:29:45.028Z,1.90
2018-07-07T14:31:38.319Z,1.90
2018-07-07T14:32:37.720Z,1.70
2018-07-07T14:34:30.574Z,1.70
2018-07-07T14:35:30.458Z,1.80
2018-07-07T14:37:23.309Z,1.80
2018-07-07T14:38:23.266Z,1.70
2018-07-07T14:40:16.072Z,1.80
2018-07-07T14:41:15.947Z,1.80
2018-07-07T14:43:08.834Z,1.90
2018-07-07T14:44:08.712Z,2.10
2018-07-07T14:46:01.565Z,2.00
2018-07-07T14:47:01.485Z,2.00
2018-07-07T14:48:54.307Z,1.70
2018-07-07T14:49:54.195Z,1.80
2018-07-07T14:51:47.036Z,1.80
2018-07-07T14:52:46.972Z,2.20
2018-07-07T14:54:40.360Z,2.00
2018-07-07T14:55:39.712Z,2.10
2018-07-07T14:57:32.553Z,2.00
2018-07-07T14:58:32.469Z,1.90
2018-07-07T15:00:25.293Z,2.10
2018-07-07T15:01:25.403Z,1.80
2018-07-07T15:03:18.068Z,1.80
2018-07-07T15:04:17.967Z,2.10
2018-07-07T15:06:11.317Z,1.80
2018-07-07T15:07:10.688Z,1.60
2018-07-07T15:09:03.546Z,2.00
2018-07-07T15:10:03.473Z,1.90
2018-07-07T15:11:56.334Z,1.70
2018-07-07T15:12:56.209Z,1.70
2018-07-07T15:14:54.942Z,1.70
2018-07-07T15:17:45.584Z,1.80
2018-07-07T15:18:45.667Z,1.80
2018-07-07T15:20:38.368Z,1.90
2018-07-07T15:21:38.230Z,1.90
2018-07-07T15:23:31.099Z,2.00
2018-07-07T15:24:31.051Z,1.80
2018-07-07T15:26:23.837Z,1.80
2018-07-07T15:27:23.728Z,2.10
2018-07-07T15:29:16.568Z,2.00
2018-07-07T15:30:16.483Z,1.70
2018-07-07T15:32:09.347Z,1.80
2018-07-07T15:33:09.230Z,1.80
2018-07-07T15:35:02.059Z,1.60
2018-07-07T15:36:01.986Z,2.00
2018-07-07T15:37:54.854Z,1.90
2018-07-07T15:38:54.731Z,1.90
2018-07-07T15:40:47.574Z,1.80
2018-07-07T15:41:47.472Z,1.80
2018-07-07T15:43:41.277Z,1.80
2018-07-07T15:44:41.149Z,1.80
2018-07-07T15:46:34.014Z,1.90
2018-07-07T15:47:33.900Z,1.80
2018-07-07T15:49:26.756Z,1.70
2018-07-07T15:50:26.646Z,1.60
2018-07-07T15:52:19.497Z,1.70
2018-07-07T15:53:19.418Z,1.90
2018-07-07T15:55:12.742Z,1.80
2018-07-07T15:56:12.658Z,1.70
2018-07-07T15:58:05.539Z,1.60
2018-07-07T15:59:05.409Z,1.70
2018-07-07T16:00:58.257Z,1.80
2018-07-07T16:01:58.162Z,1.80
2018-07-07T16:03:51.011Z,2.00
2018-07-07T16:04:50.908Z,1.90
2018-07-07T16:06:43.767Z,1.90
2018-07-07T16:07:43.653Z,1.90
2018-07-07T16:09:38.216Z,1.90
2018-07-07T16:10:36.467Z,2.00
2018-07-07T16:12:29.278Z,2.20
2018-07-07T16:13:29.166Z,1.80
2018-07-07T16:15:22.056Z,1.80
2018-07-07T16:16:21.922Z,2.00
2018-07-07T16:18:14.902Z,1.70
2018-07-07T16:19:14.667Z,1.90
2018-07-07T16:21:07.623Z,1.80
2018-07-07T16:22:07.606Z,2.00
2018-07-07T16:24:00.445Z,1.90
2018-07-07T16:25:00.299Z,1.80
2018-07-07T16:26:53.238Z,1.80
2018-07-07T16:27:53.001Z,1.70
2018-07-07T16:29:45.872Z,2.40
2018-07-07T16:30:45.779Z,2.00
2018-07-07T16:32:38.616Z,2.10
2018-07-07T16:33:38.500Z,1.80
2018-07-07T16:35:31.350Z,1.80
2018-07-07T16:36:31.251Z,1.90
2018-07-07T16:38:24.114Z,1.90
2018-07-07T16:39:24.006Z,1.80
2018-07-07T16:41:16.855Z,2.20
2018-07-07T16:42:16.757Z,2.10
2018-07-07T16:44:09.628Z,1.80
2018-07-07T16:45:09.505Z,1.80
2018-07-07T16:47:02.405Z,1.90
2018-07-07T16:48:02.252Z,1.80
2018-07-07T16:49:55.119Z,1.70
2018-07-07T16:50:55.015Z,1.80
2018-07-07T16:52:47.867Z,1.90
2018-07-07T16:53:47.756Z,1.70
2018-07-07T16:55:40.621Z,1.90
2018-07-07T16:56:40.529Z,1.70
2018-07-07T16:58:33.876Z,2.00
2018-07-07T16:59:33.256Z,2.40
2018-07-07T17:01:26.107Z,4.00
2018-07-07T17:02:26.010Z,1.80
2018-07-07T17:04:18.845Z,1.90
2018-07-07T17:05:18.750Z,1.80
2018-07-07T17:07:11.597Z,1.80
2018-07-07T17:08:11.649Z,2.30
2018-07-07T17:10:04.994Z,1.90
2018-07-07T17:11:04.768Z,2.00
2018-07-07T17:12:57.621Z,1.90
2018-07-07T17:13:57.545Z,2.10
2018-07-07T17:15:50.426Z,2.20
2018-07-07T17:16:50.287Z,2.00
2018-07-07T17:18:43.136Z,1.90
2018-07-07T17:19:43.017Z,2.00
2018-07-07T17:21:35.926Z,2.20
2018-07-07T17:22:36.175Z,2.00
2018-07-07T17:24:28.626Z,2.00
2018-07-07T17:25:28.534Z,2.10
2018-07-07T17:27:21.347Z,2.10
2018-07-07T17:28:21.795Z,2.00
2018-07-07T17:30:14.163Z,2.20
2018-07-07T17:31:14.016Z,2.10
2018-07-07T17:33:06.861Z,2.10
2018-07-07T17:34:06.769Z,2.40
2018-07-07T17:36:00.142Z,1.90
2018-07-07T17:36:59.531Z,2.20
2018-07-07T17:38:52.355Z,2.20
2018-07-07T17:39:52.265Z,1.80
2018-07-07T17:41:45.112Z,2.10
2018-07-07T17:42:45.024Z,2.30
2018-07-07T17:44:37.851Z,2.00
2018-07-07T17:45:37.781Z,2.00
2018-07-07T17:47:30.624Z,2.30
2018-07-07T17:48:30.519Z,2.10
2018-07-07T17:50:23.866Z,2.30
2018-07-07T17:51:23.787Z,2.10
2018-07-07T17:53:16.631Z,2.30
2018-07-07T17:54:16.532Z,2.40
2018-07-07T17:56:09.463Z,2.20
2018-07-07T17:57:09.278Z,2.30
2018-07-07T17:59:02.113Z,2.30
2018-07-07T18:00:02.022Z,2.50
2018-07-07T18:01:55.025Z,2.00
2018-07-07T18:02:54.902Z,2.20
2018-07-07T18:04:48.217Z,2.50
2018-07-07T18:05:48.041Z,2.10
2018-07-07T18:07:41.451Z,2.20
2018-07-07T18:08:41.315Z,2.50
2018-07-07T18:10:34.205Z,2.00
2018-07-07T18:11:34.109Z,2.10
2018-07-07T18:13:27.077Z,2.20
2018-07-07T18:14:26.804Z,2.20
2018-07-07T18:16:20.371Z,1.80
2018-07-07T18:17:19.672Z,2.10
2018-07-07T18:19:12.504Z,2.20
2018-07-07T18:20:12.292Z,2.00
2018-07-07T18:22:05.141Z,2.10
2018-07-07T18:23:05.064Z,1.80
2018-07-07T18:24:57.881Z,2.00
2018-07-07T18:25:57.796Z,2.30
2018-07-07T18:27:50.671Z,2.20
2018-07-07T18:28:50.536Z,2.20
2018-07-07T18:30:43.390Z,2.30
2018-07-07T18:31:43.308Z,2.40
2018-07-07T18:33:36.148Z,2.30
2018-07-07T18:34:36.052Z,2.00
2018-07-07T18:36:28.882Z,2.30
2018-07-07T18:37:28.811Z,2.10
2018-07-07T18:39:21.647Z,2.40
2018-07-07T18:40:21.535Z,2.50
2018-07-07T18:42:14.384Z,2.20
2018-07-07T18:43:14.313Z,2.30
2018-07-07T18:45:07.138Z,2.30
2018-07-07T18:46:07.032Z,2.20
2018-07-07T18:47:59.860Z,2.10
2018-07-07T18:48:59.800Z,2.70
2018-07-07T18:50:52.629Z,2.30
2018-07-07T18:51:52.531Z,2.40
2018-07-07T18:53:45.378Z,2.30
2018-07-07T18:54:45.281Z,2.30
2018-07-07T18:56:38.208Z,2.60
2018-07-07T18:57:38.027Z,2.10
2018-07-07T18:59:30.892Z,2.30
2018-07-07T19:00:30.788Z,2.20
2018-07-07T19:02:23.628Z,2.20
2018-07-07T19:03:23.633Z,2.30
2018-07-07T19:05:16.515Z,2.40
2018-07-07T19:06:16.268Z,2.10
2018-07-07T19:08:09.107Z,2.20
2018-07-07T19:09:09.073Z,2.30
2018-07-07T19:11:01.896Z,2.00